Saturday, November 18, 2017, 10:03 PM EST
Back to Local

KSBY, Salisbury-wicomico Cty Reg

Location: Salisbury, MD, United States Lat: 38.333
Local Time: 10:03 PM EST ( 3:03 GMT) Lon: -75.5
Time Zone: US/Eastern Elev: 52 ft

Show me the last for .
Show Decoded

2017-11-18 20:54 METAR KSBY 190154Z 20015G20KT 10SM CLR 16/11 A2960 RMK AO2 SLP024 T01610111 =
2017-11-18 19:54 METAR KSBY 190054Z 19013KT 10SM CLR 16/11 A2961 RMK AO2 SLP030 T01560106 =
2017-11-18 18:54 METAR KSBY 182354Z 19011G20KT 10SM CLR 15/09 A2965 RMK AO2 SLP043 T01500094
                 10172 20133 58014 =
2017-11-18 17:54 METAR KSBY 182254Z 20010KT 10SM CLR 14/09 A2967 RMK AO2 SLP050 T01390089 =
2017-11-18 16:54 METAR KSBY 182154Z 19010KT 10SM CLR 14/07 A2969 RMK AO2 SLP055 T01390072 =
2017-11-18 15:54 METAR KSBY 182054Z 18011KT 10SM CLR 14/06 A2969 RMK AO2 SLP057 T01390056 56031 =
2017-11-18 14:54 METAR KSBY 181954Z 18010KT 10SM CLR 16/03 A2972 RMK AO2 PK WND 20027/1903 SLP067
                 T01560033 =
2017-11-18 13:54 METAR KSBY 181854Z 20017G22KT 10SM CLR 17/M01 A2974 RMK AO2 PK WND 19028/1836
                 SLP073 T01671006 =
2017-11-18 12:54 METAR KSBY 181754Z 20012G22KT 10SM CLR 16/02 A2979 RMK AO2 PK WND 22027/1735
                 SLP088 T01610022 10161 20022 58053 =
2017-11-18 11:54 METAR KSBY 181654Z 19010G19KT 10SM CLR 13/04 A2984 RMK AO2 SLP108 T01280039 =
2017-11-18 10:54 METAR KSBY 181554Z 20012G19KT 10SM CLR 12/05 A2990 RMK AO2 SLP129 T01220050 =
2017-11-18 09:54 METAR KSBY 181454Z 19010KT 10SM CLR 10/05 A2994 RMK AO2 SLP142 T01000050 58025 =
2017-11-18 08:54 METAR KSBY 181354Z 18008KT 10SM CLR 08/04 A2998 RMK AO2 SLP153 T00780039 =
2017-11-18 07:54 METAR KSBY 181254Z 18006KT 10SM CLR 04/02 A3000 RMK AO2 SLP161 T00390022 =
2017-11-18 06:54 METAR KSBY 181154Z 15003KT 10SM CLR 02/01 A3002 RMK AO2 SLP167 T00220006 10022
                 21017 58010 =
2017-11-18 05:54 METAR KSBY 181054Z 16003KT 10SM CLR M01/M02 A3003 RMK AO2 SLP173 T10111017 =
2017-11-18 04:54 METAR KSBY 180954Z AUTO 00000KT 10SM CLR M02/M03 A3004 RMK AO2 SLP176 T10171028
                 =
2017-11-18 03:54 METAR KSBY 180854Z AUTO 12003KT 10SM CLR M01/M03 A3005 RMK AO2 SLP177 T10111028
                 58020 =
2017-11-18 02:54 METAR KSBY 180754Z AUTO 00000KT 10SM CLR M01/M02 A3007 RMK AO2 SLP184 T10111022
                 =
2017-11-18 01:54 METAR KSBY 180654Z AUTO 00000KT 10SM CLR M02/M02 A3009 RMK AO2 SLP190 T10171022
                 =
2017-11-18 00:54 METAR KSBY 180554Z AUTO 00000KT 10SM CLR M01/M02 A3010 RMK AO2 SLP197 T10111022
                 10028 21017 56011 =
2017-11-17 23:54 METAR KSBY 180454Z AUTO 00000KT 10SM CLR M01/M02 A3010 RMK AO2 SLP197 T10111022
                 401111017 =
2017-11-17 22:54 METAR KSBY 180354Z AUTO 00000KT 10SM CLR M01/M02 A3013 RMK AO2 SLP204 T10111022
                 =

Support USWX by starting your Amazon purchase here.